createdAt,value
2022-09-07T00:04:25.952Z,981.6
2022-09-07T00:18:50.252Z,982.1
2022-09-07T00:33:15.112Z,982
2022-09-07T00:47:42.021Z,982.2
2022-09-07T01:02:11.607Z,982.3
2022-09-07T01:16:40.224Z,981.7
2022-09-07T01:31:15.337Z,981.3
2022-09-07T01:45:44.346Z,981
2022-09-07T02:00:08.429Z,980.7
2022-09-07T02:14:36.881Z,980.4
2022-09-07T02:29:04.742Z,980
2022-09-07T02:43:38.959Z,979.7
2022-09-07T02:58:10.199Z,979.7
2022-09-07T03:12:34.230Z,979.5
2022-09-07T03:27:01.780Z,979.5
2022-09-07T03:41:29.980Z,979.5
2022-09-07T03:55:55.828Z,979.3
2022-09-07T04:10:24.449Z,979.4
2022-09-07T04:24:52.709Z,979.3
2022-09-07T04:39:21.097Z,979.4
2022-09-07T04:53:55.286Z,979.4
2022-09-07T05:08:26.096Z,979.5
2022-09-07T05:22:51.713Z,979.6
2022-09-07T05:37:19.411Z,979.7
2022-09-07T05:51:48.129Z,979.8
2022-09-07T06:06:21.921Z,979.8
2022-09-07T06:20:52.154Z,979.9
2022-09-07T06:35:17.222Z,980.1
2022-09-07T06:49:46.577Z,980.1
2022-09-07T07:04:15.990Z,980.2
2022-09-07T07:18:44.977Z,980.2
2022-09-07T07:33:23.567Z,980.2
2022-09-07T07:47:47.001Z,980.5
2022-09-07T08:02:14.623Z,980.6
2022-09-07T08:16:59.047Z,980.6
2022-09-07T08:31:34.493Z,980.6
2022-09-07T08:46:05.288Z,980.7
2022-09-07T09:00:36.562Z,980.7
2022-09-07T09:15:04.487Z,980.7
2022-09-07T09:29:39.724Z,980.8
2022-09-07T09:44:06.841Z,980.8
2022-09-07T09:59:06.009Z,980.7
2022-09-07T10:13:54.998Z,980.7
2022-09-07T10:28:22.850Z,980.7
2022-09-07T10:43:22.681Z,980.7
2022-09-07T10:57:31.181Z,980.7
2022-09-07T11:12:04.324Z,980.6
2022-09-07T11:26:29.337Z,980.5
2022-09-07T11:40:58.393Z,980.3
2022-09-07T11:55:26.270Z,980.2
2022-09-07T12:09:55.397Z,980.2
2022-09-07T12:24:23.849Z,980.1
2022-09-07T12:38:48.782Z,980.2
2022-09-07T12:53:24.143Z,980.1
2022-09-07T13:08:09.508Z,979.9
2022-09-07T13:22:25.306Z,979.9
2022-09-07T13:36:52.567Z,979.8
2022-09-07T13:51:21.319Z,979.7
2022-09-07T14:05:50.754Z,979.7
2022-09-07T14:20:17.146Z,979.7
2022-09-07T14:34:45.828Z,979.7
2022-09-07T14:49:21.356Z,979.6
2022-09-07T15:03:50.505Z,979.3
2022-09-07T15:18:13.650Z,979.4
2022-09-07T15:32:43.313Z,979.3
2022-09-07T15:47:51.027Z,979.2
2022-09-07T16:02:03.201Z,979.1
2022-09-07T16:17:36.770Z,979
2022-09-07T16:32:52.152Z,978.9
2022-09-07T16:46:53.314Z,978.8
2022-09-07T17:01:22.222Z,979
2022-09-07T17:15:48.362Z,978.9
2022-09-07T17:30:16.847Z,978.8
2022-09-07T17:44:43.373Z,978.8
2022-09-07T18:00:11.933Z,978.8
2022-09-07T18:14:11.284Z,978.9
2022-09-07T18:29:28.005Z,979
2022-09-07T18:43:35.946Z,978.9
2022-09-07T18:58:06.128Z,978.8
2022-09-07T19:12:32.468Z,978.8
2022-09-07T19:27:01.646Z,978.7
2022-09-07T19:41:28.400Z,978.7
2022-09-07T19:55:57.588Z,978.6
2022-09-07T20:10:27.423Z,978.4
2022-09-07T20:24:53.634Z,978.2
2022-09-07T20:39:20.582Z,978.1
2022-09-07T20:53:47.567Z,978.1
2022-09-07T21:08:16.145Z,978
2022-09-07T21:22:44.564Z,978.1
2022-09-07T21:37:11.663Z,978
2022-09-07T21:51:37.564Z,977.9
2022-09-07T22:06:05.778Z,977.9
2022-09-07T22:20:35.119Z,977.9
2022-09-07T22:35:02.607Z,977.8
2022-09-07T22:49:30.139Z,977.9
2022-09-07T23:03:59.739Z,977.8
2022-09-07T23:18:29.653Z,977.5
2022-09-07T23:32:57.112Z,977.2
2022-09-07T23:47:25.154Z,976.9
